Time;durP1;ratioP1;P1;durP2;ratioP2;P2;SDS_P1;SDS_P2;PMS_P1;PMS_P2;Temp;Humidity;BMP_temperature;BMP_pressure;BME280_temperature;BME280_humidity;BME280_pressure;Samples;Min_cycle;Max_cycle;Signal;HPM_P1;HPM_P2
2022/01/25 00:08:38;;;;;;;60.17;44.60;;;;;;;1.40;94.67;103271.31;6434130;23;20390;-74
2022/01/25 00:25:10;;;;;;;58.58;42.10;;;;;;;1.44;95.27;103273.28;6433385;23;20021;-75
2022/01/25 00:27:49;;;;;;;61.65;43.50;;;;;;;1.44;95.45;103280.09;6433953;23;20323;-74
2022/01/25 00:30:29;;;;;;;55.20;42.35;;;;;;;1.39;95.49;103277.22;6433649;23;20009;-74
2022/01/25 00:33:00;;;;;;;59.10;43.70;;;;;;;1.45;95.57;103274.19;6433889;23;20024;-74
2022/01/25 00:35:31;;;;;;;63.67;44.93;;;;;;;1.48;95.60;103270.91;6433768;23;20000;-75
2022/01/25 00:38:03;;;;;;;65.60;44.43;;;;;;;1.52;95.90;103281.47;6432942;23;20020;-75
2022/01/25 00:40:34;;;;;;;63.43;44.97;;;;;;;1.45;95.58;103276.75;6432487;23;20016;-75
2022/01/25 00:43:05;;;;;;;58.57;43.00;;;;;;;1.48;95.79;103271.78;6433420;23;20009;-75
2022/01/25 00:45:37;;;;;;;56.73;42.50;;;;;;;1.49;95.88;103275.25;6433440;23;20009;-74
2022/01/25 00:48:17;;;;;;;62.13;46.20;;;;;;;1.44;95.71;103273.28;6433783;23;20100;-74
2022/01/25 00:50:49;;;;;;;62.88;42.55;;;;;;;1.44;95.86;103274.97;6433626;23;20418;-74
2022/01/25 00:56:10;;;;;;;60.38;43.38;;;;;;;1.39;95.87;103266.06;6432865;23;20021;-74
2022/01/25 00:58:41;;;;;;;64.20;43.80;;;;;;;1.42;96.32;103267.16;6433148;23;20079;-74
2022/01/25 01:01:13;;;;;;;61.00;44.97;;;;;;;1.44;96.27;103260.41;6433689;23;20005;-74
2022/01/25 01:03:44;;;;;;;61.43;45.33;;;;;;;1.49;95.96;103264.97;6432676;23;20020;-74
2022/01/25 01:06:17;;;;;;;60.03;44.03;;;;;;;1.47;96.13;103267.44;6433201;23;20429;-74
2022/01/25 01:08:49;;;;;;;61.63;44.30;;;;;;;1.49;96.17;103263.28;6433043;23;20009;-74
2022/01/25 01:11:29;;;;;;;58.58;44.42;;;;;;;1.47;96.02;103272.59;6432580;23;20013;-73
2022/01/25 01:17:00;;;;;;;64.43;46.90;;;;;;;1.48;96.05;103265.75;6433732;23;20746;-74
2022/01/25 01:31:02;;;;;;;62.38;44.15;;;;;;;1.56;96.94;103274.84;6433747;23;20013;-73
2022/01/25 01:42:12;;;;;;;68.10;47.23;;;;;;;1.53;96.55;103273.00;6368496;23;20024;-73
2022/01/25 01:47:48;;;;;;;59.15;43.72;;;;;;;1.59;96.80;103275.06;6280440;23;20074;-73
2022/01/25 01:50:31;;;;;;;55.40;42.85;;;;;;;1.56;96.79;103277.41;6278440;23;20082;-74
2022/01/25 01:53:05;;;;;;;60.72;44.17;;;;;;;1.54;96.67;103273.88;6278390;23;20046;-73
2022/01/25 01:55:36;;;;;;;65.93;45.17;;;;;;;1.58;96.46;103271.59;6278433;23;20102;-75
2022/01/25 01:58:08;;;;;;;59.67;43.17;;;;;;;1.61;96.53;103279.50;6254342;23;20053;-74
2022/01/25 02:00:46;;;;;;;57.10;43.67;;;;;;;1.61;96.39;103283.75;6278594;23;20540;-74
2022/01/25 02:03:19;;;;;;;54.63;40.75;;;;;;;1.57;96.46;103280.09;6278609;23;20067;-75
2022/01/25 02:05:50;;;;;;;61.20;44.95;;;;;;;1.53;96.61;103280.72;6278181;23;20446;-74
2022/01/25 02:08:22;;;;;;;62.77;44.20;;;;;;;1.59;97.02;103282.75;6278200;23;20159;-74
2022/01/25 02:10:53;;;;;;;58.77;44.07;;;;;;;1.58;96.38;103270.72;6278032;23;20018;-74
2022/01/25 02:13:25;;;;;;;60.50;43.47;;;;;;;1.62;96.41;103268.41;6298634;23;20015;-73
2022/01/25 02:15:58;;;;;;;59.23;43.77;;;;;;;1.66;95.78;103268.63;6307684;23;20017;-73
2022/01/25 02:24:11;;;;;;;59.65;44.03;;;;;;;1.69;96.54;103264.59;6340735;23;20020;-74
2022/01/25 02:26:42;;;;;;;60.63;44.17;;;;;;;1.66;96.38;103263.47;6368706;23;20050;-73
2022/01/25 02:29:14;;;;;;;64.27;43.50;;;;;;;1.68;96.69;103269.63;6369575;23;20010;-74
2022/01/25 02:31:45;;;;;;;60.83;44.57;;;;;;;1.68;96.89;103260.22;6370531;23;20064;-73
2022/01/25 02:34:16;;;;;;;58.70;44.33;;;;;;;1.70;97.26;103252.59;6370117;23;20511;-74
2022/01/25 02:36:58;;;;;;;61.17;44.13;;;;;;;1.71;97.03;103264.69;6370929;23;20025;-74
2022/01/25 02:39:31;;;;;;;62.22;44.95;;;;;;;1.70;96.56;103257.75;6370078;23;20099;-74
2022/01/25 02:42:02;;;;;;;61.05;45.28;;;;;;;1.71;96.88;103250.13;6370120;23;20098;-73
2022/01/25 02:44:35;;;;;;;62.00;44.47;;;;;;;1.72;97.01;103248.44;6370241;23;20022;-74
2022/01/25 02:50:16;;;;;;;62.47;46.13;;;;;;;1.71;96.67;103241.53;6250088;23;19914;-74
2022/01/25 02:52:48;;;;;;;67.03;47.03;;;;;;;1.74;97.12;103249.41;6250373;23;20071;-73
2022/01/25 02:55:19;;;;;;;64.23;46.47;;;;;;;1.69;96.86;103243.09;6250348;23;20018;-74
2022/01/25 02:57:50;;;;;;;67.37;46.77;;;;;;;1.71;96.92;103242.41;6250270;23;20015;-74
2022/01/25 03:00:22;;;;;;;69.07;47.30;;;;;;;1.72;97.14;103245.88;6258115;23;20011;-74
2022/01/25 03:02:53;;;;;;;67.80;49.40;;;;;;;1.74;97.27;103245.19;6309146;23;20041;-74
2022/01/25 03:05:25;;;;;;;64.87;47.47;;;;;;;1.77;97.39;103239.31;6309415;23;20006;-73
2022/01/25 03:07:57;;;;;;;67.67;48.70;;;;;;;1.79;97.63;103240.34;6309556;23;20376;-74
2022/01/25 03:10:38;;;;;;;68.20;47.25;;;;;;;1.80;97.66;103240.44;6309126;23;20089;-74
2022/01/25 03:13:16;;;;;;;69.88;48.90;;;;;;;1.80;97.57;103240.44;6309346;23;20007;-74
2022/01/25 03:23:50;;;;;;;74.13;49.83;;;;;;;1.85;96.88;103226.94;6435094;23;20020;-74
2022/01/25 03:26:23;;;;;;;67.53;49.38;;;;;;;1.83;96.55;103224.28;6435127;23;20005;-74
2022/01/25 03:28:56;;;;;;;77.13;51.60;;;;;;;1.84;96.36;103223.50;6434897;23;20032;-74
2022/01/25 03:31:27;;;;;;;74.45;52.30;;;;;;;1.85;96.41;103232.09;6434342;23;20001;-74
2022/01/25 03:33:59;;;;;;;70.73;50.33;;;;;;;1.89;96.14;103228.94;6433686;23;20012;-73
2022/01/25 03:36:31;;;;;;;76.50;53.88;;;;;;;1.92;96.36;103236.84;6434623;23;20009;-74
2022/01/25 03:39:05;;;;;;;69.80;49.40;;;;;;;1.94;96.24;103227.53;6434451;23;20087;-74
2022/01/25 03:41:36;;;;;;;76.05;52.28;;;;;;;1.89;96.20;103223.78;6434387;23;20101;-73
2022/01/25 03:44:08;;;;;;;79.43;52.43;;;;;;;1.89;96.55;103218.66;6434769;23;20022;-74
2022/01/25 03:46:55;;;;;;;86.77;56.73;;;;;;;1.93;95.87;103218.03;6434046;23;20051;-73
2022/01/25 03:52:22;;;;;;;71.93;50.03;;;;;;;1.90;96.17;103215.25;6434422;23;20080;-74
2022/01/25 03:54:54;;;;;;;76.43;50.40;;;;;;;1.94;96.01;103225.84;6434161;23;20040;-73
2022/01/25 03:57:26;;;;;;;70.10;50.27;;;;;;;1.95;96.21;103219.03;6433868;23;20443;-73
2022/01/25 03:59:59;;;;;;;75.17;51.43;;;;;;;1.95;96.41;103219.91;6434232;23;20243;-73
2022/01/25 04:02:33;;;;;;;72.95;49.42;;;;;;;1.93;96.20;103225.75;6434494;23;20059;-74
2022/01/25 04:05:08;;;;;;;72.05;50.63;;;;;;;1.88;96.66;103234.88;6433778;23;20080;-74
2022/01/25 04:07:48;;;;;;;71.35;51.10;;;;;;;1.95;96.75;103226.75;6434502;23;20015;-74
2022/01/25 04:10:20;;;;;;;74.45;51.90;;;;;;;1.95;96.83;103231.91;6434335;23;20060;-74
2022/01/25 04:12:52;;;;;;;71.55;50.55;;;;;;;1.92;96.47;103235.16;6433804;23;20328;-73
2022/01/25 04:15:23;;;;;;;71.60;50.13;;;;;;;1.89;96.46;103236.66;6433711;23;20063;-72
2022/01/25 04:18:23;;;;;;;68.73;47.90;;;;;;;1.94;96.67;103242.97;6433946;23;20042;-73
2022/01/25 04:26:37;;;;;;;71.38;48.53;;;;;;;1.96;96.70;103228.50;6308908;23;20019;-75
2022/01/25 04:29:08;;;;;;;74.83;49.70;;;;;;;1.94;96.93;103224.97;6308608;23;20006;-74
2022/01/25 04:31:40;;;;;;;72.00;48.17;;;;;;;1.92;96.78;103227.44;6308582;23;20085;-73
2022/01/25 04:51:41;;;;;;;71.90;50.97;;;;;;;1.98;96.66;103217.53;6278815;23;20116;-75
2022/01/25 04:59:56;;;;;;;72.95;49.85;;;;;;;1.93;97.07;103215.44;6304601;23;20018;-74
2022/01/25 05:08:16;;;;;;;67.72;46.58;;;;;;;1.97;97.16;103213.16;6279943;23;20016;-74
2022/01/25 05:11:02;;;;;;;65.03;46.13;;;;;;;1.97;96.96;103213.16;6278058;23;20011;-75
2022/01/25 05:13:50;;;;;;;70.53;47.97;;;;;;;1.98;97.18;103206.31;6278355;23;20011;-73
2022/01/25 05:16:33;;;;;;;80.43;50.67;;;;;;;2.00;96.85;103208.22;6278565;23;20018;-74
2022/01/25 05:24:36;;;;;;;79.35;54.35;;;;;;;1.98;96.59;103217.53;6308527;23;20457;-75
2022/01/25 05:27:10;;;;;;;69.90;50.30;;;;;;;2.00;96.99;103209.91;6307621;23;20477;-75
2022/01/25 05:29:41;;;;;;;79.57;51.35;;;;;;;1.98;96.83;103208.91;6308378;23;20058;-75
2022/01/25 05:32:13;;;;;;;77.40;52.07;;;;;;;2.03;96.88;103212.66;6308366;23;20404;-75
2022/01/25 05:34:45;;;;;;;79.10;53.95;;;;;;;2.00;96.89;103207.34;6308260;23;20007;-74
2022/01/25 05:37:16;;;;;;;74.93;50.57;;;;;;;2.02;96.72;103210.00;6308780;23;20384;-76
2022/01/25 05:39:49;;;;;;;77.53;53.47;;;;;;;2.02;96.69;103210.00;6308403;23;20477;-76
2022/01/25 05:45:39;;;;;;;;;;;;;;;2.10;96.64;103198.50;6348162;23;20013;-75
2022/01/25 05:48:11;;;;;;;73.70;49.95;;;;;;;2.00;96.60;103203.06;6368649;23;19920;-75
2022/01/25 05:50:43;;;;;;;76.00;49.95;;;;;;;2.00;96.64;103208.22;6368959;23;20030;-75
2022/01/25 05:53:14;;;;;;;79.40;53.77;;;;;;;2.03;96.91;103206.63;6368519;23;20014;-75
2022/01/25 05:55:46;;;;;;;79.53;51.57;;;;;;;1.98;96.59;103208.91;6368632;23;20017;-74
2022/01/25 05:58:17;;;;;;;76.40;51.17;;;;;;;1.99;96.89;103200.41;6368599;23;20388;-74
2022/01/25 06:00:48;;;;;;;77.67;51.73;;;;;;;2.04;97.09;103203.25;6368695;23;20013;-75
2022/01/25 06:03:20;;;;;;;81.07;53.70;;;;;;;2.05;96.91;103190.50;6370424;23;20396;-75
2022/01/25 06:05:52;;;;;;;80.73;54.80;;;;;;;2.04;96.13;103196.41;6370556;23;20013;-75
2022/01/25 06:08:23;;;;;;;83.47;53.83;;;;;;;2.09;96.98;103197.59;6345947;23;20010;-75
2022/01/25 06:10:56;;;;;;;84.20;53.47;;;;;;;2.07;96.60;103195.72;6370720;23;20400;-75
2022/01/25 06:13:27;;;;;;;81.38;54.92;;;;;;;2.07;96.60;103201.75;6370669;23;20432;-76
2022/01/25 06:15:58;;;;;;;85.93;55.53;;;;;;;2.05;96.47;103203.34;6370284;23;20029;-74
2022/01/25 06:18:30;;;;;;;84.33;56.37;;;;;;;2.00;96.34;103197.03;6370386;23;20042;-74
2022/01/25 06:21:01;;;;;;;77.90;52.80;;;;;;;2.08;96.56;103200.09;6405197;23;20033;-76
2022/01/25 06:23:32;;;;;;;84.70;55.93;;;;;;;2.06;96.76;103196.50;6435019;23;20009;-75
2022/01/25 06:26:04;;;;;;;84.53;53.77;;;;;;;2.04;96.52;103201.56;6435816;23;20005;-75
2022/01/25 06:28:35;;;;;;;82.13;52.67;;;;;;;2.03;96.52;103202.38;6435108;23;20012;-74
2022/01/25 06:31:08;;;;;;;83.07;54.63;;;;;;;2.05;96.42;103193.06;6435245;23;20012;-75
2022/01/25 06:33:42;;;;;;;79.00;50.75;;;;;;;2.06;96.28;103196.50;6435515;23;20005;-75
2022/01/25 06:36:14;;;;;;;80.18;52.33;;;;;;;2.06;96.20;103199.09;6435442;23;20467;-73
2022/01/25 06:38:45;;;;;;;90.35;55.83;;;;;;;2.08;95.94;103200.09;6434719;23;20039;-73
2022/01/25 06:41:17;;;;;;;80.27;53.77;;;;;;;2.10;96.17;103203.63;6434665;23;20005;-74
2022/01/25 06:43:49;;;;;;;80.20;53.13;;;;;;;2.07;95.55;103213.75;6435364;23;20047;-74
2022/01/25 06:46:20;;;;;;;80.23;53.27;;;;;;;2.09;95.60;103209.56;6435510;23;20030;-74
2022/01/25 06:48:51;;;;;;;78.37;50.47;;;;;;;2.12;96.03;103202.91;6435300;23;20071;-74
2022/01/25 06:51:23;;;;;;;78.37;51.30;;;;;;;2.05;95.98;103205.94;6435013;23;20032;-74
2022/01/25 06:53:54;;;;;;;82.23;52.80;;;;;;;2.09;95.68;103207.88;6434931;23;20045;-74
2022/01/25 06:56:25;;;;;;;75.77;52.47;;;;;;;2.07;96.27;103208.59;6434899;23;20470;-74
2022/01/25 06:58:57;;;;;;;85.60;57.80;;;;;;;2.07;95.52;103196.59;6433917;23;20001;-74
2022/01/25 07:01:30;;;;;;;78.87;53.83;;;;;;;2.12;95.28;103202.03;6435316;23;20092;-77
2022/01/25 07:04:01;;;;;;;;;;;;;;;2.20;95.29;103216.25;6435400;23;20016;-76
2022/01/25 07:06:33;;;;;;;77.53;50.45;;;;;;;2.13;95.44;103217.56;6435381;23;20389;-74
2022/01/25 07:09:04;;;;;;;85.27;55.07;;;;;;;2.17;95.26;103213.50;6434458;23;20065;-76
2022/01/25 07:11:35;;;;;;;81.80;54.13;;;;;;;2.17;95.22;103226.38;6435097;23;20009;-74
2022/01/25 07:14:07;;;;;;;78.40;54.23;;;;;;;2.19;95.44;103224.78;6434462;23;20076;-76
2022/01/25 07:16:38;;;;;;;85.60;55.17;;;;;;;2.19;95.24;103230.81;6435069;23;20004;-77
2022/01/25 07:19:10;;;;;;;78.77;53.23;;;;;;;2.22;95.38;103218.91;6434816;23;20051;-75
2022/01/25 07:21:41;;;;;;;81.03;53.37;;;;;;;2.21;94.79;103222.28;6434611;23;20009;-74
2022/01/25 07:24:12;;;;;;;75.50;52.13;;;;;;;2.22;94.48;103213.78;6434767;23;20296;-74
2022/01/25 07:26:44;;;;;;;79.97;53.53;;;;;;;2.22;94.67;103219.81;6434713;23;20019;-76
2022/01/25 07:29:16;;;;;;;81.87;53.73;;;;;;;2.19;94.14;103222.22;6434480;23;20342;-73
2022/01/25 07:31:47;;;;;;;81.93;53.77;;;;;;;2.27;94.81;103223.56;6432759;23;20005;-73
2022/01/25 07:34:19;;;;;;;82.20;54.57;;;;;;;2.25;94.16;103226.84;6432781;23;20085;-73
2022/01/25 07:36:51;;;;;;;77.90;53.53;;;;;;;2.24;93.77;103223.38;6433119;23;20013;-72
2022/01/25 07:39:23;;;;;;;81.03;53.53;;;;;;;2.28;93.62;103224.44;6432190;23;20017;-74
2022/01/25 07:41:58;;;;;;;78.80;54.05;;;;;;;2.26;93.57;103221.78;6431597;23;20056;-73
2022/01/25 07:44:32;;;;;;;82.13;55.72;;;;;;;2.28;93.04;103219.31;6433701;23;20015;-73
2022/01/25 07:47:04;;;;;;;79.40;53.22;;;;;;;2.27;91.35;103228.72;6433858;23;20021;-72
2022/01/25 07:49:36;;;;;;;80.13;54.25;;;;;;;2.30;91.71;103223.75;6431629;23;20001;-72
2022/01/25 07:52:07;;;;;;;77.27;51.70;;;;;;;2.34;92.25;103225.69;6432513;23;20360;-74
2022/01/25 07:54:39;;;;;;;85.73;54.90;;;;;;;2.28;92.34;103229.59;6433698;23;20001;-74
2022/01/25 07:57:10;;;;;;;82.57;54.83;;;;;;;2.31;92.03;103229.78;6433777;23;20017;-73
2022/01/25 07:59:42;;;;;;;76.30;53.53;;;;;;;2.35;92.13;103232.63;6431149;23;20029;-73
2022/01/25 08:02:16;;;;;;;78.00;52.10;;;;;;;2.39;91.54;103236.28;6430950;23;20005;-74
2022/01/25 08:04:47;;;;;;;79.75;54.63;;;;;;;2.42;91.47;103228.75;6430195;23;20407;-74
2022/01/25 08:07:19;;;;;;;82.30;54.33;;;;;;;2.46;91.88;103229.81;6429993;23;20040;-75
2022/01/25 08:09:50;;;;;;;84.27;54.70;;;;;;;2.40;90.98;103230.34;6430702;23;20008;-72
2022/01/25 08:12:21;;;;;;;75.07;54.83;;;;;;;2.43;90.63;103225.38;6432863;23;20430;-73
2022/01/25 08:14:56;;;;;;;84.93;57.50;;;;;;;2.43;90.27;103232.19;6434122;23;20033;-74
2022/01/25 08:17:28;;;;;;;85.60;58.13;;;;;;;2.40;89.81;103224.28;6433427;23;20012;-73
2022/01/25 08:19:59;;;;;;;82.10;56.17;;;;;;;2.40;89.42;103225.19;6432980;23;20009;-72
2022/01/25 08:22:33;;;;;;;84.83;56.10;;;;;;;2.44;89.87;103229.72;6432133;23;20005;-74
2022/01/25 08:25:05;;;;;;;81.13;56.42;;;;;;;2.45;90.04;103231.50;6432587;23;20100;-73
2022/01/25 08:27:37;;;;;;;85.97;60.22;;;;;;;2.50;89.29;103237.81;6433011;23;20009;-74
2022/01/25 08:30:09;;;;;;;88.13;57.13;;;;;;;2.54;89.08;103242.38;6433316;23;20511;-73
2022/01/25 08:32:40;;;;;;;80.60;56.25;;;;;;;2.54;88.74;103239.78;6432862;23;20181;-70
2022/01/25 08:35:12;;;;;;;86.17;58.63;;;;;;;2.60;89.01;103239.25;6433945;23;20211;-71
2022/01/25 08:37:44;;;;;;;87.07;58.73;;;;;;;2.59;88.82;103236.59;6432527;23;20024;-70
2022/01/25 08:40:16;;;;;;;84.90;59.83;;;;;;;2.66;90.00;103233.59;6432681;23;20088;-71
2022/01/25 08:42:47;;;;;;;86.37;58.70;;;;;;;2.68;89.83;103243.16;6433579;23;20047;-72
2022/01/25 08:45:19;;;;;;;84.53;57.60;;;;;;;2.66;89.31;103238.75;6433655;23;20007;-72
2022/01/25 08:47:50;;;;;;;84.90;59.43;;;;;;;2.65;88.58;103234.38;6433573;23;20016;-73
2022/01/25 08:50:22;;;;;;;83.47;57.97;;;;;;;2.73;89.58;103239.16;6433623;23;20051;-72
2022/01/25 08:52:53;;;;;;;83.47;58.50;;;;;;;2.76;89.38;103242.75;6433061;23;20221;-72
2022/01/25 08:55:25;;;;;;;96.10;65.40;;;;;;;2.70;87.60;103249.28;6433482;23;20092;-71
2022/01/25 08:57:57;;;;;;;101.40;68.15;;;;;;;2.75;87.41;103244.41;6432904;23;20435;-71
2022/01/25 09:00:28;;;;;;;98.10;68.53;;;;;;;2.73;86.36;103246.00;6433487;23;20047;-72
2022/01/25 09:03:00;;;;;;;92.93;65.23;;;;;;;2.83;86.49;103248.31;6433019;23;20042;-72
2022/01/25 09:05:31;;;;;;;99.00;66.80;;;;;;;2.84;86.67;103244.06;6405736;23;20332;-73
2022/01/25 09:08:05;;;;;;;95.77;65.33;;;;;;;2.87;86.92;103249.41;6432491;23;20073;-73
2022/01/25 09:10:36;;;;;;;90.45;61.78;;;;;;;2.89;87.12;103243.53;6433322;23;20331;-73
2022/01/25 09:13:08;;;;;;;99.07;69.07;;;;;;;2.84;85.94;103255.25;6432912;23;20005;-73
2022/01/25 09:15:39;;;;;;;104.63;69.57;;;;;;;2.91;86.25;103247.13;6433010;23;20076;-72
2022/01/25 09:18:11;;;;;;;102.37;68.20;;;;;;;2.91;85.85;103246.19;6432472;23;20020;-74
2022/01/25 09:20:42;;;;;;;99.27;68.50;;;;;;;2.96;86.06;103247.34;6432679;23;20012;-72
2022/01/25 09:23:18;;;;;;;98.53;67.13;;;;;;;3.00;86.26;103251.91;6432471;23;20088;-73
2022/01/25 09:25:50;;;;;;;96.35;68.70;;;;;;;3.04;86.19;103251.28;6432973;23;20415;-73
2022/01/25 09:28:22;;;;;;;100.37;70.00;;;;;;;3.04;86.17;103255.53;6432932;23;20020;-73
2022/01/25 09:30:54;;;;;;;104.07;69.83;;;;;;;3.00;84.82;103246.75;6433404;23;20005;-75
2022/01/25 09:33:25;;;;;;;99.10;66.77;;;;;;;3.04;85.80;103255.53;6433022;23;20453;-73
2022/01/25 09:35:57;;;;;;;104.72;70.65;;;;;;;3.07;85.36;103254.00;6432877;23;20009;-74
2022/01/25 09:38:28;;;;;;;104.37;70.63;;;;;;;3.12;85.07;103251.69;6432499;23;20012;-74
2022/01/25 09:41:00;;;;;;;107.13;74.17;;;;;;;3.14;85.16;103250.13;6432750;23;20092;-72
2022/01/25 09:43:32;;;;;;;108.20;74.10;;;;;;;3.16;85.48;103253.66;6432594;23;20505;-72
2022/01/25 09:46:03;;;;;;;104.63;71.87;;;;;;;3.28;85.51;103259.53;6432836;23;20005;-73
2022/01/25 09:48:35;;;;;;;106.30;73.63;;;;;;;3.31;85.41;103263.09;6432733;23;20009;-73
2022/01/25 09:51:09;;;;;;;102.93;72.33;;;;;;;3.35;85.08;103262.44;6432503;23;20009;-74
2022/01/25 09:53:41;;;;;;;108.90;72.85;;;;;;;3.37;84.87;103266.91;6432452;23;20009;-73
2022/01/25 09:56:12;;;;;;;109.90;73.73;;;;;;;3.33;84.51;103269.22;6432937;23;20072;-72
2022/01/25 09:58:44;;;;;;;97.33;68.27;;;;;;;3.38;84.24;103267.78;6432340;23;20063;-73
2022/01/25 10:01:24;;;;;;;100.55;69.85;;;;;;;3.37;84.31;103269.47;6432779;23;20071;-72
2022/01/25 10:03:58;;;;;;;102.50;69.70;;;;;;;3.42;84.40;103269.75;6432835;23;20059;-72
2022/01/25 10:06:32;;;;;;;106.47;71.20;;;;;;;3.42;83.23;103268.03;6432439;23;20005;-72
2022/01/25 10:09:03;;;;;;;94.70;69.40;;;;;;;3.45;82.93;103275.94;6432151;23;20083;-72
2022/01/25 10:11:37;;;;;;;94.43;65.57;;;;;;;3.52;82.44;103278.88;6429612;23;20080;-74
2022/01/25 10:14:09;;;;;;;97.65;69.70;;;;;;;3.61;82.94;103274.25;6430139;23;20346;-73
2022/01/25 10:16:43;;;;;;;99.23;66.90;;;;;;;3.61;82.44;103272.53;6431720;23;20008;-72
2022/01/25 10:19:14;;;;;;;95.07;66.10;;;;;;;3.70;82.17;103276.44;6431278;23;20120;-74
2022/01/25 10:21:49;;;;;;;99.73;65.40;;;;;;;3.78;81.87;103273.50;6432263;23;20043;-72
2022/01/25 10:24:24;;;;;;;92.80;65.93;;;;;;;3.85;82.16;103269.56;6432171;23;20016;-72
2022/01/25 10:27:03;;;;;;;92.90;67.00;;;;;;;3.72;80.74;103278.31;6432027;23;20044;-74
2022/01/25 10:29:36;;;;;;;89.57;65.63;;;;;;;3.75;81.19;103277.56;6431999;23;20009;-72
2022/01/25 10:32:13;;;;;;;95.20;66.72;;;;;;;3.88;81.41;103277.47;6432261;23;20013;-73
2022/01/25 10:34:48;;;;;;;92.95;64.93;;;;;;;3.82;80.48;103270.25;6432274;23;20009;-71
2022/01/25 10:37:28;;;;;;;91.13;66.25;;;;;;;3.93;80.14;103270.84;6432135;23;20016;-74
2022/01/25 10:39:59;;;;;;;89.53;64.93;;;;;;;3.97;79.11;103275.38;6431656;23;20023;-74
2022/01/25 10:42:31;;;;;;;91.53;64.03;;;;;;;3.99;77.74;103267.72;6432241;23;20099;-72
2022/01/25 10:45:16;;;;;;;88.65;63.92;;;;;;;3.91;78.40;103269.91;6431886;23;20021;-72
2022/01/25 10:47:50;;;;;;;90.20;63.30;;;;;;;3.99;78.69;103268.63;6433060;23;20419;-74
2022/01/25 10:50:26;;;;;;;94.65;64.75;;;;;;;3.94;78.16;103272.63;6434132;23;20066;-74
2022/01/25 10:53:15;;;;;;;98.45;68.55;;;;;;;4.03;79.22;103268.78;6434200;23;20036;-73
2022/01/25 10:55:49;;;;;;;90.15;68.05;;;;;;;3.95;79.05;103265.78;6434048;23;20008;-72
2022/01/25 10:58:22;;;;;;;96.55;64.88;;;;;;;3.90;78.54;103264.66;6433795;23;20334;-73
2022/01/25 11:00:53;;;;;;;;;;;;;;;4.15;79.63;103269.44;6434451;23;20327;-72
2022/01/25 11:03:35;;;;;;;89.50;64.72;;;;;;;4.06;78.17;103269.84;6434360;23;19935;-72
2022/01/25 11:06:17;;;;;;;89.45;64.43;;;;;;;4.07;77.96;103265.53;6434036;23;20351;-72
2022/01/25 11:08:52;;;;;;;90.72;64.57;;;;;;;4.04;78.21;103265.38;6434241;23;20009;-74
2022/01/25 11:11:27;;;;;;;93.65;65.90;;;;;;;4.10;77.32;103268.28;6433671;23;20048;-74
2022/01/25 11:14:50;;;;;;;91.28;65.20;;;;;;;4.09;77.46;103266.50;6433785;23;20379;-73
2022/01/25 11:16:53;;;;;;;91.28;63.63;;;;;;;4.20;78.56;103268.88;6433866;23;20021;-72
2022/01/25 11:19:25;;;;;;;91.70;66.60;;;;;;;4.13;77.66;103269.34;6434407;23;20059;-74
2022/01/25 11:21:59;;;;;;;91.53;64.95;;;;;;;4.27;78.12;103275.25;6433476;23;20044;-72
2022/01/25 11:24:32;;;;;;;93.22;65.57;;;;;;;4.26;78.03;103272.59;6434422;23;20016;-74
2022/01/25 11:27:05;;;;;;;91.55;67.03;;;;;;;4.22;76.64;103279.28;6433828;23;20405;-72
2022/01/25 11:29:39;;;;;;;91.50;66.00;;;;;;;4.19;75.77;103269.69;6433795;23;20009;-74
2022/01/25 11:32:20;;;;;;;91.63;65.57;;;;;;;4.23;76.64;103268.13;6434039;23;20007;-72
2022/01/25 11:34:52;;;;;;;95.90;70.07;;;;;;;4.09;76.97;103272.59;6433896;23;20065;-73
2022/01/25 11:37:45;;;;;;;91.13;67.10;;;;;;;4.01;77.46;103274.75;6433347;23;20060;-73
2022/01/25 11:40:31;;;;;;;91.50;67.83;;;;;;;3.92;78.06;103273.34;6435854;23;20143;-72
2022/01/25 11:43:23;;;;;;;90.47;64.72;;;;;;;4.01;78.75;103274.75;6433650;23;20247;-72
2022/01/25 11:46:03;;;;;;;93.90;67.20;;;;;;;4.08;78.14;103265.63;6425143;23;20083;-73
2022/01/25 11:48:41;;;;;;;100.93;68.43;;;;;;;4.03;78.31;103271.38;6434665;23;20419;-74
2022/01/25 11:51:18;;;;;;;98.40;68.97;;;;;;;4.06;78.26;103263.75;6433623;23;20009;-72
2022/01/25 11:53:50;;;;;;;90.65;65.30;;;;;;;4.03;77.11;103267.09;6433748;23;20001;-73
2022/01/25 11:56:25;;;;;;;90.47;65.75;;;;;;;4.06;77.57;103266.34;6433982;23;20013;-71
2022/01/25 11:58:59;;;;;;;95.35;68.07;;;;;;;3.93;77.41;103270.84;6433792;23;20016;-72
2022/01/25 12:01:33;;;;;;;93.03;66.55;;;;;;;4.10;78.48;103260.56;6433758;23;20036;-71
2022/01/25 12:04:07;;;;;;;94.28;69.00;;;;;;;4.09;78.49;103258.75;6430519;23;20012;-71
2022/01/25 12:06:49;;;;;;;97.90;70.55;;;;;;;4.00;77.50;103260.03;6433026;23;20055;-72
2022/01/25 12:09:42;;;;;;;92.05;69.05;;;;;;;4.17;78.46;103260.06;6433690;23;20128;-72
2022/01/25 12:12:15;;;;;;;95.20;65.80;;;;;;;4.00;76.13;103256.59;6432605;23;20423;-73
2022/01/25 12:14:50;;;;;;;90.00;66.57;;;;;;;3.92;76.50;103256.16;6433469;23;20032;-72
2022/01/25 12:17:27;;;;;;;97.80;68.55;;;;;;;4.02;77.40;103252.38;6432275;23;20072;-74
2022/01/25 12:20:03;;;;;;;87.47;62.80;;;;;;;4.24;76.80;103249.28;6433422;23;20027;-73
2022/01/25 12:22:40;;;;;;;88.15;64.28;;;;;;;4.33;76.00;103247.19;6432983;23;20005;-72
2022/01/25 12:25:19;;;;;;;93.78;66.53;;;;;;;4.39;74.77;103241.44;6433149;23;20005;-73
2022/01/25 12:27:55;;;;;;;91.35;63.45;;;;;;;4.34;74.98;103241.19;6433008;23;20008;-71
2022/01/25 12:30:26;;;;;;;95.40;65.97;;;;;;;4.41;76.08;103244.09;6433603;23;20009;-71
2022/01/25 12:33:04;;;;;;;88.90;63.93;;;;;;;4.44;75.40;103239.97;6433182;23;20100;-73
2022/01/25 12:36:02;;;;;;;91.95;64.03;;;;;;;4.42;75.42;103244.19;6433045;23;20039;-71
2022/01/25 12:38:44;;;;;;;88.28;63.33;;;;;;;4.44;75.59;103234.81;6432364;23;20035;-74
2022/01/25 12:41:24;;;;;;;92.80;65.35;;;;;;;4.46;75.67;103230.63;6432525;23;20316;-74
2022/01/25 12:43:59;;;;;;;90.15;63.58;;;;;;;4.48;76.00;103230.72;6432142;23;20469;-72
2022/01/25 12:46:40;;;;;;;89.30;64.70;;;;;;;4.56;76.31;103229.41;6433743;23;20423;-72
2022/01/25 12:49:16;;;;;;;87.32;62.47;;;;;;;4.47;75.86;103229.81;6433166;23;20048;-72
2022/01/25 12:51:51;;;;;;;93.15;66.47;;;;;;;4.48;76.12;103230.72;6433388;23;20056;-71
2022/01/25 12:54:25;;;;;;;87.13;64.07;;;;;;;4.43;77.28;103221.81;6433394;23;20005;-73
2022/01/25 12:56:58;;;;;;;91.03;64.85;;;;;;;4.20;76.94;103225.00;6432321;23;20005;-72
2022/01/25 12:59:33;;;;;;;91.60;63.53;;;;;;;4.25;77.29;103220.06;6405250;23;20005;-76
2022/01/25 13:02:04;;;;;;;88.35;65.07;;;;;;;4.24;77.03;103217.41;6431776;23;20005;-73
2022/01/25 13:04:36;;;;;;;84.97;62.40;;;;;;;4.28;76.46;103214.16;6433131;23;20009;-72
2022/01/25 13:07:07;;;;;;;85.40;63.20;;;;;;;4.25;77.25;103209.75;6432178;23;20004;-71
2022/01/25 13:09:44;;;;;;;89.40;63.23;;;;;;;4.37;76.81;103199.16;6405910;23;20073;-72
2022/01/25 13:12:16;;;;;;;85.55;63.92;;;;;;;4.40;77.66;103195.84;6432514;23;20005;-72
2022/01/25 13:15:03;;;;;;;86.30;62.22;;;;;;;4.48;76.67;103194.56;6432514;23;20381;-72
2022/01/25 13:17:35;;;;;;;86.68;62.97;;;;;;;4.46;76.99;103188.41;6432055;23;20013;-72
2022/01/25 13:20:07;;;;;;;87.17;63.83;;;;;;;4.45;76.35;103189.22;6432020;23;20005;-71
2022/01/25 13:22:41;;;;;;;86.97;63.00;;;;;;;4.47;76.45;103185.03;6432693;23;20001;-72
2022/01/25 13:25:31;;;;;;;84.80;62.28;;;;;;;4.46;76.26;103180.66;6432959;23;20005;-73
2022/01/25 13:28:14;;;;;;;93.05;66.63;;;;;;;4.51;76.53;103177.50;6405574;23;20015;-72
2022/01/25 13:30:45;;;;;;;89.38;61.97;;;;;;;4.57;77.26;103179.50;6432318;23;20316;-72
2022/01/25 13:33:19;;;;;;;89.87;65.27;;;;;;;4.51;76.57;103180.09;6432938;23;20005;-73
2022/01/25 13:35:53;;;;;;;82.22;63.10;;;;;;;4.47;76.28;103179.84;6432426;23;20009;-73
2022/01/25 13:38:36;;;;;;;83.75;62.90;;;;;;;4.48;76.27;103177.34;6433137;23;20020;-74
2022/01/25 13:46:27;;;;;;;90.07;63.45;;;;;;;4.23;75.82;103172.59;6442878;23;20013;-72